createdAt,value
2018-02-10T00:00:15.095Z,112.50
2018-02-10T00:01:15.123Z,117.60
2018-02-10T00:02:15.154Z,117.90
2018-02-10T00:03:15.179Z,119.00
2018-02-10T00:04:15.210Z,120.10
2018-02-10T00:05:15.244Z,126.20
2018-02-10T00:06:15.342Z,119.30
2018-02-10T00:07:15.314Z,126.90
2018-02-10T00:08:15.326Z,126.20
2018-02-10T00:09:15.350Z,118.30
2018-02-10T00:10:15.381Z,123.70
2018-02-10T00:11:15.408Z,116.40
2018-02-10T00:12:15.450Z,118.80
2018-02-10T00:13:15.469Z,124.30
2018-02-10T00:14:15.498Z,122.60
2018-02-10T00:15:15.525Z,114.70
2018-02-10T00:16:15.556Z,122.10
2018-02-10T00:17:15.586Z,121.90
2018-02-10T00:18:15.619Z,123.50
2018-02-10T00:19:15.642Z,118.40
2018-02-10T00:20:15.675Z,118.20
2018-02-10T00:21:15.701Z,117.10
2018-02-10T00:22:15.730Z,118.00
2018-02-10T00:23:15.859Z,121.90
2018-02-10T00:24:15.795Z,117.30
2018-02-10T00:25:15.817Z,110.50
2018-02-10T00:26:16.047Z,117.80
2018-02-10T00:27:15.940Z,113.10
2018-02-10T00:28:15.932Z,117.80
2018-02-10T00:29:15.936Z,115.70
2018-02-10T00:30:15.961Z,122.70
2018-02-10T00:31:15.995Z,117.90
2018-02-10T00:32:16.021Z,121.50
2018-02-10T00:33:16.061Z,128.80
2018-02-10T00:34:16.079Z,124.80
2018-02-10T00:35:16.262Z,123.70
2018-02-10T00:36:16.195Z,131.10
2018-02-10T00:37:16.164Z,114.10
2018-02-10T00:38:16.200Z,130.70
2018-02-10T00:39:16.486Z,128.70
2018-02-10T00:40:16.249Z,131.20
2018-02-10T00:41:16.278Z,129.50
2018-02-10T00:42:16.321Z,149.90
2018-02-10T00:43:16.339Z,118.30
2018-02-10T00:44:16.373Z,121.50
2018-02-10T00:45:16.455Z,118.70
2018-02-10T00:46:16.429Z,123.00
2018-02-10T00:47:16.521Z,115.40
2018-02-10T00:48:16.490Z,114.20
2018-02-10T00:49:16.512Z,112.60
2018-02-10T00:50:16.544Z,110.80
2018-02-10T00:51:16.631Z,109.10
2018-02-10T00:52:16.602Z,110.40
2018-02-10T00:53:16.629Z,106.80
2018-02-10T00:54:16.661Z,104.10
2018-02-10T00:55:16.683Z,102.20
2018-02-10T00:56:16.716Z,108.40
2018-02-10T00:57:16.943Z,109.20
2018-02-10T00:58:16.794Z,108.30
2018-02-10T00:59:16.814Z,107.80
2018-02-10T01:00:16.830Z,105.00
2018-02-10T01:01:16.861Z,111.50
2018-02-10T01:02:16.938Z,99.20
2018-02-10T01:03:16.916Z,104.90
2018-02-10T01:04:17.154Z,103.40
2018-02-10T01:05:16.990Z,104.60
2018-02-10T01:06:17.004Z,99.20
2018-02-10T01:07:17.030Z,96.30
2018-02-10T01:08:17.077Z,95.70
2018-02-10T01:09:17.154Z,98.80
2018-02-10T01:10:17.122Z,98.40
2018-02-10T01:11:17.146Z,98.20
2018-02-10T01:12:17.174Z,100.50
2018-02-10T01:13:17.272Z,101.20
2018-02-10T01:14:17.234Z,104.50
2018-02-10T01:15:17.263Z,95.40
2018-02-10T01:16:17.363Z,104.20
2018-02-10T01:17:17.323Z,96.90
2018-02-10T01:18:17.353Z,98.90
2018-02-10T01:19:17.384Z,97.30
2018-02-10T01:20:17.415Z,97.30
2018-02-10T01:21:17.441Z,93.90
2018-02-10T01:22:17.467Z,100.40
2018-02-10T01:23:17.557Z,97.70
2018-02-10T01:24:17.529Z,98.10
2018-02-10T01:25:17.553Z,94.40
2018-02-10T01:26:17.652Z,98.10
2018-02-10T01:27:17.669Z,98.40
2018-02-10T01:28:17.672Z,96.90
2018-02-10T01:29:17.689Z,98.00
2018-02-10T01:30:17.700Z,98.90
2018-02-10T01:31:17.726Z,97.40
2018-02-10T01:32:17.757Z,95.50
2018-02-10T01:33:17.791Z,100.70
2018-02-10T01:34:17.818Z,94.40
2018-02-10T01:35:17.846Z,97.70
2018-02-10T01:36:17.875Z,101.10
2018-02-10T01:37:17.903Z,98.80
2018-02-10T01:38:18.004Z,94.70
2018-02-10T01:39:17.965Z,96.50
2018-02-10T01:40:17.993Z,98.50
2018-02-10T01:41:18.023Z,94.50
2018-02-10T01:42:18.049Z,97.00
2018-02-10T01:43:18.076Z,99.10
2018-02-10T01:44:18.124Z,96.70
2018-02-10T01:45:18.195Z,94.90
2018-02-10T01:46:18.166Z,94.70
2018-02-10T01:47:18.193Z,94.30
2018-02-10T01:48:18.241Z,97.60
2018-02-10T01:49:18.254Z,96.20
2018-02-10T01:50:18.281Z,93.20
2018-02-10T01:51:18.311Z,93.10
2018-02-10T01:52:18.340Z,96.30
2018-02-10T01:53:18.369Z,92.90
2018-02-10T01:54:18.410Z,96.00
2018-02-10T01:55:18.496Z,97.40
2018-02-10T01:56:18.463Z,92.30
2018-02-10T01:57:18.497Z,92.50
2018-02-10T01:58:18.513Z,95.80
2018-02-10T01:59:18.745Z,93.80
2018-02-10T02:00:18.569Z,96.60
2018-02-10T02:01:18.599Z,103.20
2018-02-10T02:02:18.631Z,99.90
2018-02-10T02:03:18.658Z,97.00
2018-02-10T02:05:18.719Z,114.60
2018-02-10T02:07:18.869Z,116.70
2018-02-10T02:08:18.809Z,117.00
2018-02-10T02:09:18.835Z,112.20
2018-02-10T02:10:18.860Z,112.50
2018-02-10T02:11:18.894Z,119.00
2018-02-10T02:12:18.932Z,115.60
2018-02-10T02:13:18.954Z,114.00
2018-02-10T02:14:18.987Z,117.60
2018-02-10T02:15:19.010Z,116.50
2018-02-10T02:16:19.036Z,123.90
2018-02-10T02:17:19.269Z,126.70
2018-02-10T02:18:19.095Z,121.10
2018-02-10T02:19:19.120Z,123.40
2018-02-10T02:20:19.169Z,129.80
2018-02-10T02:21:19.188Z,128.00
2018-02-10T02:22:19.412Z,130.80
2018-02-10T02:23:19.253Z,121.20
2018-02-10T02:24:19.273Z,116.30
2018-02-10T02:25:19.299Z,119.00
2018-02-10T02:26:19.324Z,120.60
2018-02-10T02:27:19.356Z,118.60
2018-02-10T02:28:19.385Z,119.60
2018-02-10T02:29:19.424Z,120.80
2018-02-10T02:30:19.443Z,110.40
2018-02-10T02:31:19.796Z,112.70
2018-02-10T02:32:19.503Z,114.20
2018-02-10T02:33:19.527Z,117.60
2018-02-10T02:34:19.583Z,110.30
2018-02-10T02:35:19.593Z,109.90
2018-02-10T02:36:19.615Z,113.20
2018-02-10T02:37:19.645Z,113.50
2018-02-10T02:38:19.673Z,109.40
2018-02-10T02:39:19.706Z,108.90
2018-02-10T02:40:19.739Z,109.80
2018-02-10T02:41:19.761Z,108.30
2018-02-10T02:42:20.046Z,108.80
2018-02-10T02:43:19.818Z,110.50
2018-02-10T02:44:19.847Z,106.50
2018-02-10T02:45:19.873Z,101.40
2018-02-10T02:46:19.921Z,110.10
2018-02-10T02:47:19.933Z,103.00
2018-02-10T02:48:19.963Z,107.80
2018-02-10T02:49:19.989Z,105.60
2018-02-10T02:50:20.080Z,110.40
2018-02-10T02:51:20.104Z,103.60
2018-02-10T02:52:20.080Z,98.30
2018-02-10T02:53:20.169Z,107.90
2018-02-10T02:54:20.137Z,104.00
2018-02-10T02:55:20.175Z,101.50
2018-02-10T02:56:20.403Z,104.60
2018-02-10T02:57:20.221Z,106.60
2018-02-10T02:58:20.259Z,100.30
2018-02-10T02:59:20.285Z,102.40
2018-02-10T03:00:20.311Z,108.50
2018-02-10T03:01:20.339Z,107.70
2018-02-10T03:02:20.365Z,104.90
2018-02-10T03:03:20.400Z,99.40
2018-02-10T03:04:20.426Z,100.20
2018-02-10T03:05:20.449Z,103.50
2018-02-10T03:06:20.481Z,102.90
2018-02-10T03:07:20.510Z,110.50
2018-02-10T03:08:20.540Z,107.30
2018-02-10T03:09:20.568Z,106.10
2018-02-10T03:10:20.984Z,103.20
2018-02-10T03:11:20.636Z,106.20
2018-02-10T03:12:20.660Z,97.70
2018-02-10T03:13:20.745Z,105.60
2018-02-10T03:14:20.712Z,110.60
2018-02-10T03:15:20.740Z,105.90
2018-02-10T03:16:20.831Z,108.10
2018-02-10T03:17:20.801Z,99.90
2018-02-10T03:18:20.879Z,102.70
2018-02-10T03:19:20.857Z,108.90
2018-02-10T03:20:20.889Z,113.10
2018-02-10T03:21:20.913Z,109.00
2018-02-10T03:22:20.945Z,108.70
2018-02-10T03:23:20.970Z,109.60
2018-02-10T03:24:20.999Z,108.70
2018-02-10T03:25:21.030Z,108.30
2018-02-10T03:26:21.058Z,103.80
2018-02-10T03:27:21.169Z,108.60
2018-02-10T03:28:21.119Z,110.80
2018-02-10T03:29:21.145Z,111.10
2018-02-10T03:30:21.172Z,102.80
2018-02-10T03:31:21.204Z,105.30
2018-02-10T03:33:21.259Z,105.90
2018-02-10T03:34:21.289Z,101.60
2018-02-10T03:35:21.320Z,104.90
2018-02-10T03:36:21.345Z,107.50
2018-02-10T03:37:21.376Z,103.40
2018-02-10T03:38:21.405Z,101.20
2018-02-10T03:39:21.455Z,103.80
2018-02-10T03:40:21.460Z,103.00
2018-02-10T03:41:21.490Z,104.00
2018-02-10T03:42:21.525Z,101.30
2018-02-10T03:43:21.549Z,103.10
2018-02-10T03:44:21.581Z,103.40
2018-02-10T03:45:21.606Z,99.80
2018-02-10T03:46:21.687Z,103.20
2018-02-10T03:47:21.664Z,106.40
2018-02-10T03:48:21.692Z,104.10
2018-02-10T03:49:21.740Z,103.10
2018-02-10T03:50:21.754Z,105.60
2018-02-10T03:51:21.781Z,107.50
2018-02-10T03:52:21.812Z,111.10
2018-02-10T03:53:21.848Z,107.40
2018-02-10T03:54:21.865Z,104.50
2018-02-10T03:55:21.894Z,106.10
2018-02-10T03:56:21.967Z,97.80
2018-02-10T03:57:21.952Z,100.60
2018-02-10T03:58:21.983Z,99.50
2018-02-10T03:59:22.013Z,103.00
2018-02-10T04:00:22.039Z,101.80
2018-02-10T04:01:22.070Z,99.90
2018-02-10T04:02:22.095Z,91.40
2018-02-10T04:03:22.500Z,92.90
2018-02-10T04:04:22.156Z,92.10
2018-02-10T04:05:22.182Z,93.80
2018-02-10T04:06:22.213Z,89.80
2018-02-10T04:07:22.239Z,89.10
2018-02-10T04:08:22.269Z,88.20
2018-02-10T04:09:22.297Z,89.40
2018-02-10T04:10:22.327Z,88.30
2018-02-10T04:11:22.354Z,88.80
2018-02-10T04:12:22.383Z,88.60
2018-02-10T04:13:22.413Z,88.80
2018-02-10T04:14:22.444Z,92.80
2018-02-10T04:15:22.470Z,86.40
2018-02-10T04:16:22.501Z,92.60
2018-02-10T04:17:22.528Z,89.70
2018-02-10T04:18:22.561Z,90.20
2018-02-10T04:19:22.588Z,88.30
2018-02-10T04:20:22.665Z,90.00
2018-02-10T04:21:22.643Z,88.30
2018-02-10T04:22:22.670Z,87.90
2018-02-10T04:23:22.706Z,98.10
2018-02-10T04:24:22.730Z,96.60
2018-02-10T04:25:22.758Z,106.20
2018-02-10T04:26:22.786Z,101.60
2018-02-10T04:27:22.911Z,95.40
2018-02-10T04:28:22.846Z,99.00
2018-02-10T04:29:22.877Z,99.90
2018-02-10T04:30:22.903Z,99.50
2018-02-10T04:31:22.933Z,97.90
2018-02-10T04:32:22.963Z,100.50
2018-02-10T04:33:22.994Z,101.80
2018-02-10T04:34:23.018Z,93.60
2018-02-10T04:35:23.048Z,100.30
2018-02-10T04:36:23.077Z,97.10
2018-02-10T04:37:23.112Z,94.10
2018-02-10T04:38:23.131Z,96.40
2018-02-10T04:39:23.230Z,96.50
2018-02-10T04:40:23.189Z,97.90
2018-02-10T04:41:23.217Z,94.40
2018-02-10T04:42:23.249Z,93.10
2018-02-10T04:43:23.274Z,94.90
2018-02-10T04:44:23.307Z,96.60
2018-02-10T04:45:23.333Z,96.50
2018-02-10T04:46:23.362Z,94.50
2018-02-10T04:47:23.389Z,95.10
2018-02-10T04:48:23.419Z,90.30
2018-02-10T04:49:23.449Z,87.90
2018-02-10T04:50:23.479Z,91.00
2018-02-10T04:51:23.504Z,97.70
2018-02-10T04:52:23.533Z,93.50
2018-02-10T04:53:23.559Z,97.60
2018-02-10T04:54:23.589Z,94.60
2018-02-10T04:55:23.619Z,95.60
2018-02-10T04:56:23.703Z,104.10
2018-02-10T04:57:23.689Z,95.30
2018-02-10T04:58:23.703Z,97.50
2018-02-10T04:59:23.730Z,91.10
2018-02-10T05:00:23.761Z,93.00
2018-02-10T05:01:23.790Z,90.70
2018-02-10T05:02:23.821Z,97.20
2018-02-10T05:03:23.846Z,95.80
2018-02-10T05:04:23.875Z,96.30
2018-02-10T05:05:23.903Z,94.70
2018-02-10T05:06:23.951Z,98.00
2018-02-10T05:07:23.963Z,96.10
2018-02-10T05:08:23.991Z,93.40
2018-02-10T05:09:24.022Z,96.40
2018-02-10T05:10:24.047Z,97.50
2018-02-10T05:11:24.076Z,89.80
2018-02-10T05:13:24.198Z,95.50
2018-02-10T05:14:24.163Z,95.70
2018-02-10T05:15:24.193Z,93.90
2018-02-10T05:16:24.219Z,94.40
2018-02-10T05:17:24.248Z,95.00
2018-02-10T05:18:24.275Z,95.20
2018-02-10T05:19:24.305Z,89.00
2018-02-10T05:20:24.333Z,94.20
2018-02-10T05:21:24.363Z,93.80
2018-02-10T05:22:24.394Z,93.60
2018-02-10T05:23:24.419Z,90.50
2018-02-10T05:24:24.446Z,93.10
2018-02-10T05:25:24.497Z,93.80
2018-02-10T05:26:24.505Z,87.50
2018-02-10T05:27:24.536Z,90.10
2018-02-10T05:28:24.564Z,91.70
2018-02-10T05:29:24.589Z,88.50
2018-02-10T05:30:24.618Z,92.30
2018-02-10T05:31:24.646Z,97.20
2018-02-10T05:32:24.677Z,98.40
2018-02-10T05:33:24.706Z,95.70
2018-02-10T05:34:24.735Z,96.90
2018-02-10T05:35:24.758Z,91.70
2018-02-10T05:36:24.795Z,93.00
2018-02-10T05:37:24.819Z,95.70
2018-02-10T05:38:24.857Z,99.10
2018-02-10T05:39:24.875Z,99.00
2018-02-10T05:40:24.905Z,104.50
2018-02-10T05:41:24.937Z,100.60
2018-02-10T05:42:25.061Z,101.70
2018-02-10T05:43:24.989Z,103.50
2018-02-10T05:44:25.079Z,100.50
2018-02-10T05:45:25.047Z,101.10
2018-02-10T05:46:25.075Z,101.90
2018-02-10T05:47:25.109Z,102.20
2018-02-10T05:48:25.185Z,100.60
2018-02-10T05:49:25.228Z,106.50
2018-02-10T05:50:25.189Z,102.90
2018-02-10T05:51:25.221Z,100.90
2018-02-10T05:52:25.248Z,105.80
2018-02-10T05:53:25.336Z,110.00
2018-02-10T05:54:25.302Z,104.70
2018-02-10T05:55:25.330Z,108.80
2018-02-10T05:56:25.431Z,105.30
2018-02-10T05:57:25.387Z,107.20
2018-02-10T05:58:25.418Z,109.40
2018-02-10T05:59:25.447Z,103.20
2018-02-10T06:00:25.478Z,105.10
2018-02-10T06:01:25.512Z,101.40
2018-02-10T06:02:25.529Z,106.80
2018-02-10T06:03:25.558Z,101.90
2018-02-10T06:04:25.590Z,98.00
2018-02-10T06:05:25.614Z,103.30
2018-02-10T06:06:25.692Z,104.60
2018-02-10T06:07:25.669Z,106.00
2018-02-10T06:08:25.700Z,106.10
2018-02-10T06:09:25.731Z,108.30
2018-02-10T06:10:25.760Z,112.20
2018-02-10T06:11:25.785Z,107.00
2018-02-10T06:12:25.815Z,125.10
2018-02-10T06:13:25.886Z,128.60
2018-02-10T06:14:25.870Z,127.20
2018-02-10T06:15:25.900Z,119.40
2018-02-10T06:16:25.931Z,115.30
2018-02-10T06:17:25.965Z,117.30
2018-02-10T06:18:25.982Z,111.50
2018-02-10T06:19:26.011Z,113.50
2018-02-10T06:20:26.038Z,113.20
2018-02-10T06:21:26.066Z,118.80
2018-02-10T06:22:26.099Z,125.00
2018-02-10T06:23:26.123Z,132.30
2018-02-10T06:24:26.205Z,117.20
2018-02-10T06:25:26.210Z,122.00
2018-02-10T06:26:26.212Z,117.50
2018-02-10T06:27:26.234Z,113.30
2018-02-10T06:28:26.275Z,116.70
2018-02-10T06:29:26.292Z,109.20
2018-02-10T06:30:26.322Z,113.30
2018-02-10T06:31:26.363Z,108.60
2018-02-10T06:32:26.377Z,111.00
2018-02-10T06:33:26.405Z,114.60
2018-02-10T06:34:26.432Z,112.20
2018-02-10T06:35:26.467Z,108.60
2018-02-10T06:36:26.490Z,112.70
2018-02-10T06:37:26.518Z,114.70
2018-02-10T06:38:26.545Z,119.30
2018-02-10T06:39:26.572Z,116.40
2018-02-10T06:40:26.623Z,115.60
2018-02-10T06:41:26.635Z,113.40
2018-02-10T06:42:26.710Z,111.40
2018-02-10T06:43:26.687Z,121.40
2018-02-10T06:44:26.714Z,115.40
2018-02-10T06:45:26.744Z,108.70
2018-02-10T06:46:26.773Z,114.90
2018-02-10T06:47:26.798Z,115.10
2018-02-10T06:48:26.827Z,114.80
2018-02-10T06:49:26.854Z,111.90
2018-02-10T06:50:26.885Z,107.90
2018-02-10T06:51:26.910Z,108.20
2018-02-10T06:52:26.940Z,111.40
2018-02-10T06:53:26.976Z,105.10
2018-02-10T06:54:26.997Z,96.90
2018-02-10T06:55:27.026Z,106.10
2018-02-10T06:56:27.049Z,94.10
2018-02-10T06:57:27.078Z,98.80
2018-02-10T06:58:27.108Z,98.10
2018-02-10T06:59:27.177Z,105.40
2018-02-10T07:00:27.161Z,100.30
2018-02-10T07:01:27.190Z,96.70
2018-02-10T07:02:27.224Z,102.10
2018-02-10T07:03:27.294Z,101.40
2018-02-10T07:04:27.290Z,97.20
2018-02-10T07:05:27.301Z,103.40
2018-02-10T07:06:27.360Z,101.80
2018-02-10T07:07:27.559Z,99.70
2018-02-10T07:08:27.394Z,104.50
2018-02-10T07:09:27.421Z,102.70
2018-02-10T07:10:27.455Z,94.20
2018-02-10T07:11:27.477Z,101.10
2018-02-10T07:12:27.500Z,100.20
2018-02-10T07:13:27.527Z,98.30
2018-02-10T07:14:27.556Z,94.70
2018-02-10T07:15:27.583Z,96.00
2018-02-10T07:16:27.609Z,93.50
2018-02-10T07:17:27.638Z,86.00
2018-02-10T07:18:27.818Z,87.20
2018-02-10T07:19:27.697Z,86.00
2018-02-10T07:20:27.723Z,84.90
2018-02-10T07:21:27.758Z,80.40
2018-02-10T07:22:27.779Z,84.00
2018-02-10T07:23:27.808Z,83.90
2018-02-10T07:24:27.840Z,84.40
2018-02-10T07:25:27.930Z,82.40
2018-02-10T07:26:27.897Z,83.90
2018-02-10T07:27:27.923Z,82.00
2018-02-10T07:28:27.951Z,85.10
2018-02-10T07:29:27.981Z,82.60
2018-02-10T07:30:28.015Z,80.40
2018-02-10T07:31:28.052Z,80.50
2018-02-10T07:32:28.070Z,80.60
2018-02-10T07:33:28.106Z,81.60
2018-02-10T07:34:28.144Z,81.00
2018-02-10T07:35:28.176Z,81.60
2018-02-10T07:36:28.182Z,81.70
2018-02-10T07:37:28.206Z,85.70
2018-02-10T07:38:28.235Z,79.30
2018-02-10T07:39:28.261Z,80.70
2018-02-10T07:40:28.290Z,84.30
2018-02-10T07:41:28.324Z,85.40
2018-02-10T07:42:28.354Z,82.60
2018-02-10T07:44:28.403Z,89.90
2018-02-10T07:45:28.433Z,89.90
2018-02-10T07:46:28.515Z,93.50
2018-02-10T07:47:28.496Z,87.60
2018-02-10T07:48:28.524Z,92.20
2018-02-10T07:49:28.551Z,98.60
2018-02-10T07:50:28.577Z,94.00
2018-02-10T07:51:28.812Z,87.20
2018-02-10T07:52:28.842Z,84.10
2018-02-10T07:53:28.680Z,79.80
2018-02-10T07:54:28.704Z,83.10
2018-02-10T07:55:28.722Z,79.80
2018-02-10T07:56:28.747Z,79.00
2018-02-10T07:57:28.778Z,79.70
2018-02-10T07:58:28.805Z,82.30
2018-02-10T07:59:28.856Z,89.00
2018-02-10T08:00:28.863Z,83.00
2018-02-10T08:01:28.895Z,76.10
2018-02-10T08:02:28.920Z,77.20
2018-02-10T08:03:28.948Z,75.10
2018-02-10T08:04:28.978Z,76.20
2018-02-10T08:05:29.007Z,72.60
2018-02-10T08:06:29.033Z,72.60
2018-02-10T08:07:29.063Z,78.60
2018-02-10T08:08:29.094Z,76.60
2018-02-10T08:09:29.119Z,74.60
2018-02-10T08:10:29.149Z,80.10
2018-02-10T08:11:29.277Z,79.90
2018-02-10T08:12:29.205Z,75.90
2018-02-10T08:13:29.236Z,79.10
2018-02-10T08:14:29.263Z,80.00
2018-02-10T08:15:29.292Z,80.20
2018-02-10T08:16:29.321Z,75.20
2018-02-10T08:17:29.350Z,73.80
2018-02-10T08:18:29.378Z,81.60
2018-02-10T08:19:29.429Z,76.90
2018-02-10T08:20:29.436Z,83.20
2018-02-10T08:21:29.668Z,82.20
2018-02-10T08:22:29.491Z,78.80
2018-02-10T08:23:29.520Z,78.50
2018-02-10T08:24:29.551Z,78.70
2018-02-10T08:25:29.578Z,83.90
2018-02-10T08:26:29.607Z,86.00
2018-02-10T08:27:29.636Z,89.80
2018-02-10T08:28:29.991Z,87.10
2018-02-10T08:29:29.714Z,83.80
2018-02-10T08:30:29.726Z,84.10
2018-02-10T08:31:29.759Z,92.00
2018-02-10T08:32:29.803Z,85.90
2018-02-10T08:33:29.809Z,81.70
2018-02-10T08:34:29.851Z,83.80
2018-02-10T08:35:29.875Z,86.40
2018-02-10T08:36:29.897Z,91.60
2018-02-10T08:37:29.926Z,84.90
2018-02-10T08:38:29.956Z,87.50
2018-02-10T08:39:30.043Z,88.20
2018-02-10T08:40:30.029Z,89.30
2018-02-10T08:41:30.043Z,87.10
2018-02-10T08:42:30.071Z,87.30
2018-02-10T08:43:30.098Z,89.00
2018-02-10T08:44:30.128Z,90.70
2018-02-10T08:45:30.359Z,84.80
2018-02-10T08:46:30.396Z,87.90
2018-02-10T08:47:30.222Z,88.70
2018-02-10T08:48:30.244Z,90.20
2018-02-10T08:49:30.277Z,91.20
2018-02-10T08:50:30.303Z,93.50
2018-02-10T08:51:30.334Z,97.10
2018-02-10T08:52:30.359Z,91.20
2018-02-10T08:53:30.392Z,92.90
2018-02-10T08:54:30.419Z,91.60
2018-02-10T08:55:30.449Z,95.00
2018-02-10T08:56:30.480Z,89.10
2018-02-10T08:57:30.560Z,92.90
2018-02-10T08:58:30.534Z,88.80
2018-02-10T08:59:30.565Z,96.00
2018-02-10T09:00:30.594Z,97.80
2018-02-10T09:01:30.626Z,102.80
2018-02-10T09:02:30.650Z,109.90
2018-02-10T09:03:30.681Z,106.80
2018-02-10T09:04:30.822Z,97.20
2018-02-10T09:05:30.749Z,97.70
2018-02-10T09:06:30.769Z,93.10
2018-02-10T09:07:30.796Z,100.30
2018-02-10T09:08:30.826Z,94.10
2018-02-10T09:09:30.853Z,96.00
2018-02-10T09:10:30.883Z,92.40
2018-02-10T09:11:30.929Z,92.30
2018-02-10T09:12:30.944Z,96.40
2018-02-10T09:13:30.972Z,95.50
2018-02-10T09:14:31.001Z,92.10
2018-02-10T09:15:31.029Z,90.80
2018-02-10T09:16:31.063Z,91.90
2018-02-10T09:17:31.087Z,94.50
2018-02-10T09:18:31.116Z,88.80
2018-02-10T09:19:31.147Z,91.60
2018-02-10T09:20:31.175Z,94.00
2018-02-10T09:21:31.409Z,97.00
2018-02-10T09:22:31.234Z,94.40
2018-02-10T09:23:31.268Z,89.10
2018-02-10T09:24:31.295Z,93.80
2018-02-10T09:25:31.324Z,94.00
2018-02-10T09:26:31.367Z,94.70
2018-02-10T09:27:31.392Z,91.30
2018-02-10T09:28:31.739Z,93.80
2018-02-10T09:29:31.444Z,88.90
2018-02-10T09:30:31.471Z,93.70
2018-02-10T09:31:31.499Z,92.20
2018-02-10T09:32:31.587Z,90.00
2018-02-10T09:33:31.556Z,93.20
2018-02-10T09:34:31.586Z,90.70
2018-02-10T09:35:31.616Z,98.20
2018-02-10T09:36:31.647Z,87.50
2018-02-10T09:37:31.676Z,92.80
2018-02-10T09:38:31.717Z,88.90
2018-02-10T09:39:31.735Z,89.80
2018-02-10T09:40:31.766Z,85.70
2018-02-10T09:41:31.797Z,85.40
2018-02-10T09:42:31.826Z,90.50
2018-02-10T09:43:31.859Z,94.10
2018-02-10T09:44:31.888Z,86.40
2018-02-10T09:45:31.986Z,87.30
2018-02-10T09:46:31.940Z,92.50
2018-02-10T09:47:31.971Z,89.90
2018-02-10T09:48:31.999Z,90.40
2018-02-10T09:49:32.040Z,84.50
2018-02-10T09:50:32.061Z,91.40
2018-02-10T09:51:32.089Z,92.80
2018-02-10T09:52:32.120Z,89.90
2018-02-10T09:53:32.150Z,89.80
2018-02-10T09:54:32.188Z,90.40
2018-02-10T09:55:32.211Z,91.40
2018-02-10T09:57:32.274Z,89.10
2018-02-10T09:58:32.303Z,92.20
2018-02-10T09:59:32.330Z,93.60
2018-02-10T10:00:32.371Z,90.00
2018-02-10T10:01:32.387Z,89.10
2018-02-10T10:02:32.423Z,91.20
2018-02-10T10:03:32.448Z,85.80
2018-02-10T10:04:32.804Z,91.10
2018-02-10T10:05:32.509Z,89.60
2018-02-10T10:06:32.537Z,92.30
2018-02-10T10:07:32.576Z,86.30
2018-02-10T10:08:32.662Z,90.60
2018-02-10T10:09:32.671Z,89.80
2018-02-10T10:10:32.660Z,93.90
2018-02-10T10:11:32.690Z,86.30
2018-02-10T10:12:32.717Z,94.10
2018-02-10T10:13:32.774Z,91.10
2018-02-10T10:14:32.782Z,93.20
2018-02-10T10:15:32.808Z,92.30
2018-02-10T10:16:32.839Z,87.10
2018-02-10T10:17:32.882Z,93.50
2018-02-10T10:18:32.944Z,89.20
2018-02-10T10:19:32.927Z,90.30
2018-02-10T10:20:32.959Z,95.40
2018-02-10T10:21:33.008Z,88.90
2018-02-10T10:22:33.021Z,91.90
2018-02-10T10:23:33.063Z,91.20
2018-02-10T10:24:33.097Z,90.20
2018-02-10T10:26:33.145Z,93.50
2018-02-10T10:27:33.180Z,91.10
2018-02-10T10:28:33.250Z,87.00
2018-02-10T10:29:33.228Z,89.20
2018-02-10T10:30:33.262Z,91.30
2018-02-10T10:31:33.290Z,88.40
2018-02-10T10:32:33.321Z,93.40
2018-02-10T10:33:33.352Z,91.10
2018-02-10T10:34:33.378Z,94.30
2018-02-10T10:35:33.521Z,90.40
2018-02-10T10:36:33.437Z,90.10
2018-02-10T10:37:33.468Z,89.30
2018-02-10T10:38:33.496Z,88.60
2018-02-10T10:39:33.527Z,88.20
2018-02-10T10:40:33.624Z,88.00
2018-02-10T10:41:33.594Z,93.30
2018-02-10T10:42:33.621Z,86.40
2018-02-10T10:43:33.658Z,89.20
2018-02-10T10:44:33.681Z,89.20
2018-02-10T10:45:33.720Z,89.30
2018-02-10T10:46:33.740Z,86.50
2018-02-10T10:47:33.929Z,91.60
2018-02-10T10:48:33.801Z,92.90
2018-02-10T10:49:33.829Z,87.00
2018-02-10T10:50:33.858Z,93.20
2018-02-10T10:51:33.887Z,91.80
2018-02-10T10:52:33.917Z,92.80
2018-02-10T10:53:33.989Z,92.00
2018-02-10T10:54:33.987Z,85.50
2018-02-10T10:55:34.016Z,87.80
2018-02-10T10:56:34.077Z,90.20
2018-02-10T10:57:34.130Z,86.40
2018-02-10T10:58:34.114Z,87.70
2018-02-10T10:59:34.159Z,88.50
2018-02-10T11:00:34.162Z,87.60
2018-02-10T11:01:34.186Z,87.40
2018-02-10T11:02:34.225Z,84.90
2018-02-10T11:03:34.249Z,84.30
2018-02-10T11:04:34.698Z,87.90
2018-02-10T11:05:34.373Z,88.90
2018-02-10T11:06:34.345Z,85.90
2018-02-10T11:07:34.368Z,89.30
2018-02-10T11:08:34.403Z,86.00
2018-02-10T11:09:34.432Z,87.50
2018-02-10T11:10:34.458Z,84.80
2018-02-10T11:11:34.489Z,87.10
2018-02-10T11:12:34.518Z,84.60
2018-02-10T11:13:34.561Z,85.90
2018-02-10T11:14:34.646Z,87.60
2018-02-10T11:15:34.609Z,85.30
2018-02-10T11:16:34.848Z,87.70
2018-02-10T11:17:34.670Z,87.70
2018-02-10T11:18:34.703Z,90.70
2018-02-10T11:19:34.752Z,90.90
2018-02-10T11:20:34.762Z,89.20
2018-02-10T11:21:34.798Z,90.20
2018-02-10T11:22:34.828Z,83.90
2018-02-10T11:23:35.053Z,83.50
2018-02-10T11:24:34.882Z,88.90
2018-02-10T11:25:34.913Z,81.40
2018-02-10T11:26:34.941Z,85.80
2018-02-10T11:27:34.971Z,84.80
2018-02-10T11:28:35.002Z,83.00
2018-02-10T11:29:35.045Z,86.90
2018-02-10T11:30:35.072Z,87.90
2018-02-10T11:31:35.102Z,87.30
2018-02-10T11:32:35.123Z,83.10
2018-02-10T11:33:35.197Z,85.10
2018-02-10T11:34:35.184Z,83.50
2018-02-10T11:35:35.219Z,87.60
2018-02-10T11:36:35.243Z,85.90
2018-02-10T11:38:35.304Z,88.90
2018-02-10T11:39:35.334Z,87.20
2018-02-10T11:40:35.425Z,85.90
2018-02-10T11:41:35.494Z,84.70
2018-02-10T11:42:35.826Z,88.50
2018-02-10T11:43:35.454Z,84.90
2018-02-10T11:44:35.482Z,82.20
2018-02-10T11:45:35.522Z,87.40
2018-02-10T11:46:35.646Z,84.30
2018-02-10T11:47:35.594Z,83.70
2018-02-10T11:48:35.613Z,83.80
2018-02-10T11:49:35.634Z,80.00
2018-02-10T11:50:35.721Z,82.20
2018-02-10T11:51:35.748Z,80.80
2018-02-10T11:52:36.705Z,77.90
2018-02-10T11:53:35.821Z,78.60
2018-02-10T11:54:35.834Z,79.80
2018-02-10T11:55:35.815Z,84.70
2018-02-10T11:57:35.880Z,79.10
2018-02-10T11:58:36.108Z,84.00
2018-02-10T11:59:35.955Z,72.90
2018-02-10T12:00:35.965Z,79.20
2018-02-10T12:01:35.997Z,80.00
2018-02-10T12:02:36.039Z,82.80
2018-02-10T12:03:36.069Z,81.90
2018-02-10T12:04:36.087Z,80.10
2018-02-10T12:05:36.144Z,79.00
2018-02-10T12:06:36.153Z,77.30
2018-02-10T12:07:36.176Z,78.30
2018-02-10T12:08:36.206Z,78.40
2018-02-10T12:09:36.238Z,79.80
2018-02-10T12:10:36.283Z,81.70
2018-02-10T12:11:36.299Z,80.70
2018-02-10T12:12:36.331Z,80.70
2018-02-10T12:13:36.389Z,79.10
2018-02-10T12:14:36.393Z,78.30
2018-02-10T12:15:36.648Z,75.20
2018-02-10T12:16:36.454Z,72.60
2018-02-10T12:17:36.484Z,77.60
2018-02-10T12:18:36.516Z,75.80
2018-02-10T12:19:36.619Z,79.70
2018-02-10T12:20:36.574Z,77.30
2018-02-10T12:21:36.610Z,76.30
2018-02-10T12:22:36.659Z,74.10
2018-02-10T12:23:36.668Z,81.40
2018-02-10T12:24:36.719Z,75.80
2018-02-10T12:25:36.730Z,79.10
2018-02-10T12:26:36.816Z,79.70
2018-02-10T12:27:36.795Z,77.40
2018-02-10T12:28:36.822Z,75.00
2018-02-10T12:29:36.860Z,75.80
2018-02-10T12:30:36.881Z,71.30
2018-02-10T12:31:36.911Z,78.40
2018-02-10T12:32:36.954Z,75.30
2018-02-10T12:33:36.977Z,75.80
2018-02-10T12:34:37.008Z,77.70
2018-02-10T12:35:37.061Z,75.20
2018-02-10T12:36:37.066Z,77.50
2018-02-10T12:37:37.098Z,73.30
2018-02-10T12:38:37.130Z,73.80
2018-02-10T12:39:37.431Z,71.20
2018-02-10T12:40:37.191Z,70.50
2018-02-10T12:41:37.224Z,71.50
2018-02-10T12:42:37.259Z,81.00
2018-02-10T12:43:37.280Z,71.40
2018-02-10T12:44:37.311Z,73.10
2018-02-10T12:45:37.343Z,70.70
2018-02-10T12:46:37.381Z,75.10
2018-02-10T12:47:37.412Z,70.30
2018-02-10T12:48:37.439Z,71.30
2018-02-10T12:49:37.471Z,72.30
2018-02-10T12:50:37.521Z,72.20
2018-02-10T12:51:37.588Z,71.10
2018-02-10T12:52:37.559Z,69.00